createdAt,value
2019-02-06T00:02:27.564Z,27.13
2019-02-06T00:04:57.602Z,26.47
2019-02-06T00:07:27.341Z,26.93
2019-02-06T00:09:57.272Z,26.90
2019-02-06T00:12:27.114Z,24.47
2019-02-06T00:14:57.112Z,22.67
2019-02-06T00:17:27.232Z,24.00
2019-02-06T00:19:57.186Z,28.77
2019-02-06T00:22:27.052Z,24.60
2019-02-06T00:24:56.857Z,24.57
2019-02-06T00:27:26.938Z,24.43
2019-02-06T00:29:56.897Z,24.40
2019-02-06T00:32:26.732Z,28.77
2019-02-06T00:34:56.810Z,27.33
2019-02-06T00:37:26.658Z,24.50
2019-02-06T00:39:56.633Z,24.73
2019-02-06T00:42:26.395Z,27.03
2019-02-06T00:44:56.201Z,22.97
2019-02-06T00:47:27.373Z,24.00
2019-02-06T00:49:57.471Z,23.17
2019-02-06T00:52:27.516Z,25.00
2019-02-06T00:54:57.889Z,24.60
2019-02-06T00:57:27.713Z,24.17
2019-02-06T00:59:58.493Z,22.67
2019-02-06T01:02:28.639Z,20.23
2019-02-06T01:04:59.517Z,24.63
2019-02-06T01:07:29.678Z,27.20
2019-02-06T01:09:59.721Z,23.10
2019-02-06T01:12:29.596Z,25.50
2019-02-06T01:14:59.489Z,24.20
2019-02-06T01:17:29.610Z,21.43
2019-02-06T01:19:59.552Z,20.73
2019-02-06T01:22:29.356Z,20.53
2019-02-06T01:24:59.299Z,20.70
2019-02-06T01:27:29.177Z,23.93
2019-02-06T01:29:58.919Z,20.50
2019-02-06T01:32:28.950Z,25.13
2019-02-06T01:34:58.941Z,22.77
2019-02-06T01:37:28.857Z,14.30
2019-02-06T01:40:01.026Z,19.57
2019-02-06T01:42:30.835Z,19.60
2019-02-06T01:45:00.841Z,22.57
2019-02-06T01:47:30.595Z,17.93
2019-02-06T01:50:00.734Z,19.60
2019-02-06T01:52:30.918Z,20.70
2019-02-06T01:55:01.000Z,17.37
2019-02-06T01:57:30.941Z,21.27
2019-02-06T02:00:00.779Z,21.50
2019-02-06T02:02:30.635Z,18.37
2019-02-06T02:05:00.529Z,21.03
2019-02-06T02:07:30.826Z,18.13
2019-02-06T02:10:00.884Z,16.57
2019-02-06T02:12:30.750Z,19.30
2019-02-06T02:15:00.719Z,22.00
2019-02-06T02:17:30.644Z,19.87
2019-02-06T02:20:00.762Z,20.97
2019-02-06T02:22:30.874Z,19.50
2019-02-06T02:25:00.844Z,19.10
2019-02-06T02:27:30.657Z,15.07
2019-02-06T02:30:00.528Z,17.63
2019-02-06T02:32:30.408Z,18.37
2019-02-06T02:35:00.330Z,18.33
2019-02-06T02:37:30.513Z,21.10
2019-02-06T02:40:00.523Z,20.23
2019-02-06T02:42:30.641Z,22.00
2019-02-06T02:45:00.558Z,19.53
2019-02-06T02:47:30.534Z,18.60
2019-02-06T02:50:00.535Z,16.60
2019-02-06T02:52:30.301Z,15.93
2019-02-06T02:55:00.279Z,17.73
2019-02-06T02:57:30.299Z,18.87
2019-02-06T03:00:00.053Z,19.77
2019-02-06T03:02:46.691Z,23.73
2019-02-06T03:06:09.715Z,23.53
2019-02-06T03:08:39.565Z,25.27
2019-02-06T03:11:09.569Z,22.93
2019-02-06T03:13:39.629Z,28.13
2019-02-06T03:16:09.745Z,23.20
2019-02-06T03:18:39.805Z,28.60
2019-02-06T03:21:09.979Z,25.23
2019-02-06T03:23:39.781Z,24.80
2019-02-06T03:26:09.753Z,26.73
2019-02-06T03:28:39.524Z,24.63
2019-02-06T03:31:09.522Z,25.43
2019-02-06T03:33:41.225Z,25.50
2019-02-06T03:36:11.150Z,26.03
2019-02-06T03:38:41.150Z,29.10
2019-02-06T03:41:10.982Z,28.37
2019-02-06T03:43:40.849Z,25.10
2019-02-06T03:46:10.713Z,26.83
2019-02-06T03:48:40.629Z,26.20
2019-02-06T03:51:10.571Z,32.00
2019-02-06T03:53:40.572Z,28.17
2019-02-06T03:56:10.426Z,26.67
2019-02-06T03:58:40.375Z,30.03
2019-02-06T04:01:11.444Z,25.30
2019-02-06T04:03:41.777Z,28.07
2019-02-06T04:06:11.645Z,26.77
2019-02-06T04:08:41.853Z,27.20
2019-02-06T04:11:12.800Z,36.67
2019-02-06T04:13:42.523Z,29.87
2019-02-06T04:16:12.603Z,30.53
2019-02-06T04:18:42.669Z,28.03
2019-02-06T04:21:12.458Z,27.60
2019-02-06T04:23:42.481Z,31.67
2019-02-06T04:26:12.299Z,26.23
2019-02-06T04:28:42.153Z,25.80
2019-02-06T04:31:12.226Z,26.37
2019-02-06T04:33:42.052Z,29.90
2019-02-06T04:36:11.886Z,32.80
2019-02-06T04:38:41.880Z,34.33
2019-02-06T04:41:11.721Z,34.83
2019-02-06T04:43:41.623Z,30.97
2019-02-06T04:46:12.670Z,40.27
2019-02-06T04:48:42.619Z,37.50
2019-02-06T04:51:12.639Z,37.63
2019-02-06T04:53:42.463Z,36.57
2019-02-06T04:56:12.455Z,34.87
2019-02-06T04:58:42.248Z,40.40
2019-02-06T05:01:12.149Z,35.17
2019-02-06T05:03:41.887Z,34.13
2019-02-06T05:06:11.865Z,37.07
2019-02-06T05:08:42.012Z,36.17
2019-02-06T05:11:11.934Z,34.83
2019-02-06T05:13:41.761Z,38.23
2019-02-06T05:16:11.906Z,39.87
2019-02-06T05:18:41.782Z,42.53
2019-02-06T05:21:11.601Z,36.80
2019-02-06T05:23:41.467Z,36.60
2019-02-06T05:26:11.583Z,36.23
2019-02-06T05:28:41.384Z,37.50
2019-02-06T05:31:11.414Z,32.80
2019-02-06T05:33:41.471Z,43.47
2019-02-06T05:36:11.327Z,40.30
2019-02-06T05:38:41.543Z,40.20
2019-02-06T05:41:11.486Z,36.93
2019-02-06T05:43:41.165Z,37.03
2019-02-06T05:46:11.409Z,41.67
2019-02-06T05:48:41.234Z,38.47
2019-02-06T05:51:11.057Z,41.43
2019-02-06T05:53:40.959Z,34.57
2019-02-06T05:56:10.843Z,40.10
2019-02-06T05:58:40.832Z,36.87
2019-02-06T06:01:10.819Z,29.57
2019-02-06T06:03:41.483Z,36.33
2019-02-06T06:06:12.174Z,35.30
2019-02-06T06:08:41.976Z,30.07
2019-02-06T06:11:12.186Z,35.73
2019-02-06T06:13:42.245Z,36.17
2019-02-06T06:16:12.369Z,35.13
2019-02-06T06:18:42.436Z,39.33
2019-02-06T06:21:12.291Z,33.60
2019-02-06T06:23:42.213Z,40.47
2019-02-06T06:26:12.270Z,37.40
2019-02-06T06:28:42.345Z,33.23
2019-02-06T06:31:12.050Z,36.73
2019-02-06T06:33:41.899Z,37.13
2019-02-06T06:36:11.664Z,37.30
2019-02-06T06:38:41.488Z,39.33
2019-02-06T06:41:11.342Z,36.80
2019-02-06T06:43:41.306Z,35.77
2019-02-06T06:46:11.783Z,36.23
2019-02-06T06:48:41.962Z,39.13
2019-02-06T06:51:11.783Z,40.17
2019-02-06T06:53:41.686Z,37.70
2019-02-06T06:56:11.659Z,34.50
2019-02-06T06:58:41.440Z,32.57
2019-02-06T07:01:11.756Z,29.93
2019-02-06T07:03:41.599Z,35.40
2019-02-06T07:06:11.393Z,33.93
2019-02-06T07:08:41.400Z,38.80
2019-02-06T07:11:11.344Z,38.03
2019-02-06T07:13:41.231Z,38.17
2019-02-06T07:16:11.182Z,35.27
2019-02-06T07:18:40.976Z,33.83
2019-02-06T07:21:10.825Z,30.30
2019-02-06T07:23:40.799Z,33.50
2019-02-06T07:26:10.831Z,41.47
2019-02-06T07:28:40.681Z,33.37
2019-02-06T07:31:10.896Z,35.33
2019-02-06T07:33:41.121Z,33.27
2019-02-06T07:36:11.124Z,34.57
2019-02-06T07:38:40.911Z,30.00
2019-02-06T07:41:10.770Z,28.23
2019-02-06T07:43:41.056Z,31.93
2019-02-06T07:46:10.930Z,28.17
2019-02-06T07:48:40.954Z,31.10
2019-02-06T07:51:10.816Z,32.33
2019-02-06T07:53:40.697Z,34.00
2019-02-06T07:56:10.680Z,38.97
2019-02-06T07:58:41.227Z,41.17
2019-02-06T08:01:11.875Z,37.33
2019-02-06T08:03:41.722Z,32.87
2019-02-06T08:06:11.972Z,29.47
2019-02-06T08:08:41.829Z,31.00
2019-02-06T08:11:11.661Z,28.90
2019-02-06T08:13:42.247Z,37.20
2019-02-06T08:16:13.054Z,41.97
2019-02-06T08:18:42.981Z,39.10
2019-02-06T08:21:13.138Z,43.97
2019-02-06T08:23:43.032Z,38.37
2019-02-06T08:26:13.014Z,40.83
2019-02-06T08:28:43.268Z,42.57
2019-02-06T08:31:13.020Z,35.20
2019-02-06T08:33:43.102Z,31.63
2019-02-06T08:36:12.910Z,39.17
2019-02-06T08:38:47.978Z,35.50
2019-02-06T08:41:14.260Z,31.70
2019-02-06T08:43:43.987Z,34.37
2019-02-06T08:46:15.068Z,34.00
2019-02-06T08:48:45.138Z,29.20
2019-02-06T08:51:14.964Z,37.97
2019-02-06T08:53:46.131Z,48.33
2019-02-06T08:56:16.571Z,50.90
2019-02-06T08:58:46.548Z,49.97
2019-02-06T09:01:16.512Z,40.57
2019-02-06T09:03:46.479Z,44.90
2019-02-06T09:06:16.400Z,34.17
2019-02-06T09:08:46.311Z,36.27
2019-02-06T09:11:16.449Z,34.40
2019-02-06T09:13:46.388Z,34.03
2019-02-06T09:16:16.396Z,31.07
2019-02-06T09:18:46.395Z,34.13
2019-02-06T09:21:16.405Z,36.03
2019-02-06T09:23:46.409Z,32.47
2019-02-06T09:26:16.237Z,40.33
2019-02-06T09:28:46.020Z,39.97
2019-02-06T09:31:17.133Z,34.37
2019-02-06T09:33:47.034Z,34.73
2019-02-06T09:36:16.939Z,33.87
2019-02-06T09:38:48.091Z,37.50
2019-02-06T09:41:17.915Z,33.90
2019-02-06T09:43:47.812Z,33.63
2019-02-06T09:46:17.919Z,34.33
2019-02-06T09:48:47.984Z,35.53
2019-02-06T09:51:19.345Z,38.67
2019-02-06T09:53:49.690Z,38.43
2019-02-06T09:56:19.648Z,34.33
2019-02-06T09:58:49.817Z,39.03
2019-02-06T10:01:21.522Z,36.53
2019-02-06T10:03:51.628Z,36.90
2019-02-06T10:06:21.362Z,38.60
2019-02-06T10:08:51.581Z,43.57
2019-02-06T10:11:21.381Z,37.00
2019-02-06T10:13:51.417Z,33.43
2019-02-06T10:16:21.164Z,36.67
2019-02-06T10:18:52.315Z,32.90
2019-02-06T10:21:22.193Z,38.00
2019-02-06T10:23:52.118Z,32.63
2019-02-06T10:26:22.073Z,37.17
2019-02-06T10:28:51.948Z,41.53
2019-02-06T10:31:21.863Z,35.27
2019-02-06T10:33:51.751Z,35.40
2019-02-06T10:36:21.716Z,36.83
2019-02-06T10:38:51.641Z,48.70
2019-02-06T10:41:21.567Z,33.10
2019-02-06T10:43:51.431Z,37.60
2019-02-06T10:46:21.638Z,31.80
2019-02-06T10:48:51.538Z,32.93
2019-02-06T10:51:21.392Z,26.63
2019-02-06T10:53:51.342Z,38.63
2019-02-06T10:56:21.174Z,29.13
2019-02-06T10:58:51.171Z,31.53
2019-02-06T11:01:21.290Z,33.90
2019-02-06T11:03:51.375Z,25.43
2019-02-06T11:06:21.931Z,26.83
2019-02-06T11:08:51.702Z,30.63
2019-02-06T11:11:21.833Z,27.37
2019-02-06T11:13:51.944Z,22.40
2019-02-06T11:16:22.172Z,23.17
2019-02-06T11:18:52.415Z,17.80
2019-02-06T11:21:22.890Z,23.57
2019-02-06T11:23:52.689Z,21.13
2019-02-06T11:26:23.872Z,26.27
2019-02-06T11:28:53.879Z,18.53
2019-02-06T11:31:23.779Z,19.97
2019-02-06T11:33:53.617Z,18.57
2019-02-06T11:36:24.459Z,22.57
2019-02-06T11:38:54.551Z,22.90
2019-02-06T11:41:24.414Z,19.57
2019-02-06T11:43:54.391Z,24.70
2019-02-06T11:46:24.492Z,19.47
2019-02-06T11:48:54.898Z,21.20
2019-02-06T11:51:24.752Z,20.73
2019-02-06T11:53:54.672Z,19.40
2019-02-06T11:56:24.461Z,15.07
2019-02-06T11:58:54.459Z,17.43
2019-02-06T12:01:34.687Z,16.67
2019-02-06T12:04:04.739Z,15.43
2019-02-06T12:06:34.569Z,12.67
2019-02-06T12:09:07.451Z,12.80
2019-02-06T12:11:37.250Z,13.97
2019-02-06T12:14:07.271Z,17.07
2019-02-06T12:16:37.696Z,14.07
2019-02-06T12:19:08.005Z,13.50
2019-02-06T12:21:37.918Z,14.23
2019-02-06T12:24:08.217Z,16.77
2019-02-06T12:26:37.959Z,15.27
2019-02-06T12:29:07.901Z,16.40
2019-02-06T12:31:37.940Z,15.93
2019-02-06T12:34:08.006Z,10.30
2019-02-06T12:36:39.100Z,10.17
2019-02-06T12:39:11.141Z,12.93
2019-02-06T12:41:41.038Z,11.67
2019-02-06T12:44:12.329Z,13.60
2019-02-06T12:46:42.856Z,14.30
2019-02-06T12:49:14.580Z,13.97
2019-02-06T12:51:44.765Z,12.47
2019-02-06T12:54:14.765Z,14.53
2019-02-06T12:56:44.533Z,13.57
2019-02-06T12:59:14.513Z,12.03
2019-02-06T13:01:44.947Z,12.87
2019-02-06T13:04:14.809Z,16.60
2019-02-06T13:06:44.716Z,18.53
2019-02-06T13:09:15.093Z,12.17
2019-02-06T13:11:44.972Z,16.03
2019-02-06T13:14:14.883Z,18.30
2019-02-06T13:16:45.040Z,17.97
2019-02-06T13:19:14.813Z,17.67
2019-02-06T13:21:44.976Z,24.37
2019-02-06T13:24:15.339Z,21.13
2019-02-06T13:26:45.257Z,19.97
2019-02-06T13:29:15.402Z,22.83
2019-02-06T13:31:46.704Z,19.73
2019-02-06T13:34:16.690Z,20.50
2019-02-06T13:36:46.546Z,20.57
2019-02-06T13:39:17.686Z,21.07
2019-02-06T13:41:47.553Z,17.57
2019-02-06T13:44:17.783Z,20.13
2019-02-06T13:46:53.193Z,21.57
2019-02-06T13:49:19.459Z,23.80
2019-02-06T13:51:49.463Z,25.00
2019-02-06T13:54:19.409Z,18.40
2019-02-06T13:56:50.658Z,18.60
2019-02-06T13:59:20.654Z,20.67
2019-02-06T14:01:50.797Z,17.80
2019-02-06T14:04:20.884Z,18.17
2019-02-06T14:06:50.704Z,22.67
2019-02-06T14:09:24.351Z,23.70
2019-02-06T14:11:52.543Z,21.30
2019-02-06T14:14:22.457Z,18.50
2019-02-06T14:16:52.744Z,21.93
2019-02-06T14:19:22.861Z,19.00
2019-02-06T14:21:52.914Z,14.43
2019-02-06T14:24:37.210Z,17.90
2019-02-06T14:27:37.986Z,19.33
2019-02-06T14:30:52.080Z,19.57
2019-02-06T14:33:59.894Z,17.40
2019-02-06T14:37:11.755Z,18.53
2019-02-06T14:40:06.850Z,19.83
2019-02-06T14:42:45.197Z,19.17
2019-02-06T14:45:53.491Z,16.90
2019-02-06T14:49:01.905Z,20.60
2019-02-06T14:52:06.412Z,19.60
2019-02-06T14:54:49.666Z,19.83
2019-02-06T14:57:57.160Z,19.70
2019-02-06T15:01:00.058Z,19.30
2019-02-06T15:03:43.601Z,20.30
2019-02-06T15:06:57.224Z,16.30
2019-02-06T15:10:08.923Z,19.13
2019-02-06T15:13:12.350Z,18.13
2019-02-06T15:15:53.935Z,17.67
2019-02-06T15:18:58.237Z,15.93
2019-02-06T15:22:04.644Z,15.83
2019-02-06T15:24:45.991Z,14.10
2019-02-06T15:27:57.693Z,13.60
2019-02-06T15:31:10.220Z,15.03
2019-02-06T15:34:22.417Z,16.13
2019-02-06T15:37:23.300Z,16.17
2019-02-06T15:40:20.677Z,18.47
2019-02-06T15:43:26.401Z,19.97
2019-02-06T15:46:25.570Z,18.07
2019-02-06T15:49:11.834Z,15.97
2019-02-06T15:52:17.811Z,15.60
2019-02-06T15:55:12.494Z,17.90
2019-02-06T15:58:17.994Z,20.93
2019-02-06T16:01:19.503Z,18.53
2019-02-06T16:04:51.803Z,19.50
2019-02-06T16:07:59.792Z,19.07
2019-02-06T16:10:55.860Z,18.43
2019-02-06T16:14:01.980Z,18.13
2019-02-06T16:16:48.088Z,19.83
2019-02-06T16:20:04.837Z,23.03
2019-02-06T16:22:49.723Z,24.77
2019-02-06T16:25:41.932Z,22.90
2019-02-06T16:28:47.380Z,19.60
2019-02-06T16:31:45.352Z,24.57
2019-02-06T16:34:50.668Z,22.97
2019-02-06T16:38:10.005Z,20.00
2019-02-06T16:41:35.477Z,21.27
2019-02-06T16:44:31.549Z,21.00
2019-02-06T16:47:45.832Z,22.03
2019-02-06T16:50:26.708Z,20.80
2019-02-06T16:53:36.600Z,20.20
2019-02-06T16:56:33.692Z,20.67
2019-02-06T16:59:49.034Z,23.97
2019-02-06T17:02:57.517Z,21.13
2019-02-06T17:05:57.496Z,25.20
2019-02-06T17:09:05.544Z,26.10
2019-02-06T17:12:10.730Z,23.13
2019-02-06T17:15:33.023Z,23.30
2019-02-06T17:18:35.355Z,24.07
2019-02-06T17:21:40.017Z,26.30
2019-02-06T17:24:33.158Z,25.63
2019-02-06T17:27:22.780Z,24.20
2019-02-06T17:30:12.944Z,29.53
2019-02-06T17:33:12.632Z,30.40
2019-02-06T17:36:21.187Z,29.67
2019-02-06T17:39:26.593Z,26.43
2019-02-06T17:42:24.809Z,31.20
2019-02-06T17:45:32.379Z,28.13
2019-02-06T17:48:38.966Z,33.53
2019-02-06T17:51:38.064Z,28.30
2019-02-06T17:54:52.428Z,30.93
2019-02-06T17:57:22.234Z,27.93
2019-02-06T17:59:52.021Z,26.37
2019-02-06T18:02:21.787Z,27.17
2019-02-06T18:04:51.572Z,26.80
2019-02-06T18:07:21.416Z,26.23
2019-02-06T18:09:51.188Z,28.50
2019-02-06T18:12:26.534Z,29.47
2019-02-06T18:14:52.896Z,30.47
2019-02-06T18:17:22.669Z,31.50
2019-02-06T18:19:52.392Z,34.83
2019-02-06T18:22:22.590Z,34.83
2019-02-06T18:24:52.420Z,36.90
2019-02-06T18:27:22.237Z,36.60
2019-02-06T18:29:53.737Z,28.93
2019-02-06T18:32:23.821Z,31.20
2019-02-06T18:34:53.868Z,28.93
2019-02-06T18:37:23.649Z,32.03
2019-02-06T18:39:54.725Z,30.30
2019-02-06T18:42:24.660Z,30.37
2019-02-06T18:44:54.630Z,34.93
2019-02-06T18:47:24.800Z,30.07
2019-02-06T18:49:54.633Z,26.60
2019-02-06T18:52:24.608Z,29.03
2019-02-06T18:54:55.569Z,30.30
2019-02-06T18:57:25.334Z,30.30
2019-02-06T18:59:55.271Z,33.47
2019-02-06T19:02:25.342Z,35.07
2019-02-06T19:04:55.236Z,41.73
2019-02-06T19:07:25.245Z,41.50
2019-02-06T19:09:55.324Z,47.63
2019-02-06T19:12:25.303Z,41.90
2019-02-06T19:14:55.177Z,39.87
2019-02-06T19:17:25.002Z,40.00
2019-02-06T19:19:54.870Z,34.23
2019-02-06T19:22:25.353Z,42.90
2019-02-06T19:24:55.241Z,35.17
2019-02-06T19:27:25.125Z,32.60
2019-02-06T19:29:54.998Z,32.37
2019-02-06T19:32:26.121Z,28.83
2019-02-06T19:34:57.061Z,25.80
2019-02-06T19:37:27.019Z,24.00
2019-02-06T19:39:57.016Z,24.37
2019-02-06T19:42:26.912Z,21.37
2019-02-06T19:44:57.010Z,24.43
2019-02-06T19:47:28.784Z,18.13
2019-02-06T19:49:58.397Z,15.93
2019-02-06T19:52:29.472Z,12.63
2019-02-06T19:54:59.479Z,11.77
2019-02-06T19:57:29.301Z,13.20
2019-02-06T20:00:00.635Z,13.23
2019-02-06T20:02:30.559Z,11.33
2019-02-06T20:05:01.614Z,11.87
2019-02-06T20:07:31.352Z,10.67
2019-02-06T20:10:01.213Z,17.13
2019-02-06T20:12:31.028Z,14.57
2019-02-06T20:15:00.738Z,13.83
2019-02-06T20:17:30.555Z,13.63
2019-02-06T20:20:00.369Z,16.97
2019-02-06T20:22:31.432Z,15.90
2019-02-06T20:25:01.212Z,13.37
2019-02-06T20:27:31.460Z,16.80
2019-02-06T20:30:01.314Z,18.60
2019-02-06T20:32:31.207Z,16.80
2019-02-06T20:35:01.194Z,16.77
2019-02-06T20:37:30.976Z,21.27
2019-02-06T20:40:00.794Z,22.63
2019-02-06T20:42:30.550Z,22.20
2019-02-06T20:45:00.478Z,23.10
2019-02-06T20:47:30.341Z,23.67
2019-02-06T20:50:00.331Z,19.23
2019-02-06T20:52:30.219Z,28.23
2019-02-06T20:55:00.308Z,28.73
2019-02-06T20:57:30.145Z,23.83
2019-02-06T21:00:00.375Z,30.53
2019-02-06T21:02:30.035Z,23.50
2019-02-06T21:04:59.696Z,22.87
2019-02-06T21:07:30.755Z,22.37
2019-02-06T21:10:00.718Z,22.37
2019-02-06T21:12:30.481Z,23.33
2019-02-06T21:15:00.379Z,19.40
2019-02-06T21:17:30.281Z,18.20
2019-02-06T21:20:00.311Z,19.03
2019-02-06T21:22:30.264Z,15.83
2019-02-06T21:25:00.179Z,15.40
2019-02-06T21:27:29.980Z,15.00
2019-02-06T21:29:59.903Z,16.97
2019-02-06T21:32:29.893Z,21.37
2019-02-06T21:34:59.738Z,17.60
2019-02-06T21:37:29.625Z,20.17
2019-02-06T21:39:59.665Z,15.67
2019-02-06T21:42:29.483Z,19.03
2019-02-06T21:44:59.459Z,17.93
2019-02-06T21:47:29.302Z,19.47
2019-02-06T21:49:59.215Z,17.90
2019-02-06T21:52:28.985Z,18.63
2019-02-06T21:54:58.872Z,18.20
2019-02-06T21:57:28.865Z,18.87
2019-02-06T21:59:59.938Z,20.10
2019-02-06T22:02:29.719Z,19.27
2019-02-06T22:04:59.422Z,16.07
2019-02-06T22:07:29.195Z,18.77
2019-02-06T22:09:58.951Z,21.10
2019-02-06T22:12:28.883Z,17.30
2019-02-06T22:14:58.819Z,18.13
2019-02-06T22:17:28.609Z,14.97
2019-02-06T22:19:58.416Z,17.90
2019-02-06T22:22:28.191Z,18.10
2019-02-06T22:24:57.967Z,18.60
2019-02-06T22:27:27.779Z,17.27
2019-02-06T22:29:57.634Z,18.03
2019-02-06T22:32:27.288Z,16.37
2019-02-06T22:34:58.462Z,15.47
2019-02-06T22:37:28.423Z,16.27
2019-02-06T22:39:58.490Z,19.87
2019-02-06T22:42:28.486Z,20.10
2019-02-06T22:44:58.774Z,23.67
2019-02-06T22:47:28.417Z,27.63
2019-02-06T22:49:58.656Z,27.17
2019-02-06T22:52:28.618Z,29.70
2019-02-06T22:54:58.711Z,27.17
2019-02-06T22:57:28.771Z,30.77
2019-02-06T22:59:58.621Z,37.70
2019-02-06T23:02:28.332Z,37.23
2019-02-06T23:04:58.197Z,39.43
2019-02-06T23:07:28.063Z,32.70
2019-02-06T23:09:57.684Z,37.00
2019-02-06T23:12:27.513Z,37.43
2019-02-06T23:14:57.302Z,39.47
2019-02-06T23:17:27.021Z,28.67
2019-02-06T23:19:56.983Z,28.03
2019-02-06T23:22:27.258Z,32.20
2019-02-06T23:24:56.969Z,46.33
2019-02-06T23:27:26.830Z,38.67
2019-02-06T23:29:56.744Z,45.67
2019-02-06T23:32:26.642Z,46.17
2019-02-06T23:34:56.549Z,45.77
2019-02-06T23:37:26.621Z,47.53
2019-02-06T23:39:56.619Z,44.10
2019-02-06T23:42:26.492Z,44.60
2019-02-06T23:44:56.324Z,54.03
2019-02-06T23:47:26.173Z,55.80
2019-02-06T23:49:55.942Z,45.33
2019-02-06T23:52:25.845Z,45.67
2019-02-06T23:54:55.611Z,48.10
2019-02-06T23:57:25.269Z,48.53
2019-02-06T23:59:55.185Z,47.37
